Aktualna pogoda na lotniskach (dane METAR)

 

EPGD - Gdansk/Rebiechow, Poland
Distance from station: ENE 44km
Updated: Fri, 19-Oct-2018 07:00 CEST
Clear
Clear
 Wind from NNW
Wiatr: NNW 7 km/h
Temperatura: 7°C
Indeks Wychł.: 6°C
Punkt Rosy: 6°C
Wilgotność: 93%
Ciśnienie: 1022 hPa
Ogólnie: Clear
Widzialność: greater than 10 km
2018/10/19 05:00 EPGD 190500Z 34004KT 320V030 CAVOK 07/06 Q1022
EPSC - Szczecin/Golenio, Poland
Distance from station: WSW 205km
Updated: Fri, 19-Oct-2018 07:00 CEST
Fog, Mostly cloudy
Fog, Mostly cloudy
 Wind from NW
Wiatr: NW 9 km/h
Temperatura: 7°C
Indeks Wychł.: 6°C
Punkt Rosy: 7°C
Wilgotność: 100%
Ciśnienie: 1023 hPa
Ogólnie: Fog
Zachmurzenie: Mostly Cloudy
Widzialność: 0 km
Szczegóły zachm.: Mostly Cloudy 30 m
2018/10/19 05:00 EPSC 190500Z 32005KT 0200 R31/0750D FG BKN001 07/07 Q1023
 
EPPO - Poznan/Lawica, Poland
Distance from station: SSW 210km
Updated: Fri, 19-Oct-2018 07:00 CEST
Fog, Overcast
Fog, Overcast
 Wind from NW
Wiatr: NW 4 km/h
Temperatura: 12°C
Punkt Rosy: 12°C
Wilgotność: 100%
Ciśnienie: 1022 hPa
Ogólnie: Fog
Zachmurzenie: Overcast
Widzialność: 1 km
Szczegóły zachm.: Overcast 61 m
2018/10/19 05:00 EPPO 190500Z 31002KT 0900 R28/2000 FG OVC002 12/12 Q1022
EPLL - Lodz/Lublinek, Poland
Distance from station: SSE 296km
Updated: Fri, 19-Oct-2018 07:00 CEST
Fog, Partly cloudy
Fog, Partly cloudy
 Wind from WSW
Wiatr: WSW 6 km/h
Temperatura: 9°C
Punkt Rosy: 8°C
Wilgotność: 94%
Ciśnienie: 1020 hPa
Ogólnie: Fog
Zachmurzenie: Partly Cloudy
Widzialność: 0 km
Szczegóły zachm.: Partly Cloudy 91 m
2018/10/19 05:00 EPLL 190500Z 25003KT 0300 R25/0650D FG SCT003 09/08 Q1020
 
EPWA - Warsaw/Okecie, Poland
Distance from station: SE 307km
Updated: Fri, 19-Oct-2018 07:00 CEST
Partly Cloudy
Partly Cloudy
 Wind from NW
Wiatr: NW 11 km/h
Temperatura: 10°C
Indeks Wychł.: 8°C
Punkt Rosy: 8°C
Wilgotność: 88%
Ciśnienie: 1020 hPa
Zachmurzenie: Partly Cloudy
Widzialność: 6 km
2018/10/19 05:00 EPWA 190500Z 32006KT 6000 NSC 10/08 Q1020 TEMPO 5000 BR
EPWR - Wroclaw/Strachow, Poland
Distance from station: S 352km
Updated: Fri, 19-Oct-2018 07:00 CEST
Fog, Overcast
Fog, Overcast
 Wind from NNW
Wiatr: NNW 9 km/h
Temperatura: 10°C
Indeks Wychł.: 9°C
Punkt Rosy: 10°C
Wilgotność: 100%
Ciśnienie: 1022 hPa
Ogólnie: Fog
Zachmurzenie: Overcast
Widzialność: 1 km
Szczegóły zachm.: Overcast 61 m
2018/10/19 05:00 EPWR 190500Z 33005KT 0600 R29/1200N FG OVC002 10/10 Q1022

Metar display script from Saratoga-Weather.org